Airfield :
LOGIN :

Register | Disclaimer

   EN    FR    IT 

 










Legend :    VFR   Marginal VFR   IFR   Intensive IFR   Very Intensive IFR
Visi :
Ceiling :
>= 8 km
>= 3000ft
5 to 8 km
1000 to 3000 ft
1500m to 5 km
500 to 1000 ft
800 to 1500m
200 to 500 ft
< 800m
< 200 ft
Symbols :   Thunderstorms  Fog  Heavy snow  Heavy precipitations  Wind > 20 kt
SIGMETs :     Misc.  Thunderstorms  Icing  Turbulence  Mountain Waves  Volcanic Ashes






- Airport Elevation : 1906 ft
- IATA code : INN


LOWI - Innsbruck

CURRENT METAR :
  • 191620Z 26014KT 240V300 9999 -SHRASN SCT015 SCT030 BKN050 03/M01 Q1023 NOSIG

EXPIRED METARs :
  • 191550Z 33007KT 280V060 9999 -SHRA FEW015 SCT030 BKN050 04/M01 Q1022 NOSIG
  • 191520Z VRB03KT 9999 FEW015 SCT030 BKN060 04/00 Q1022 NOSIG
  • 191450Z 27010KT 240V300 9999 -SHRA FEW015 SCT025 BKN060 04/01 Q1021 NOSIG
  • 191420Z 29007KT 250V360 9999 -SHRA SCT015 BKN025 04/01 Q1021 NOSIG

TAF TAF LOWI
Valid from the 19 at 12:00 until the 20 at 12:00 UTC


191115Z 1912/2012 27005KT 9999 SCT060 BKN100 TX06/2012Z TNM01/2006Z
TEMPO 1912/1916 27015G30KT SHRASN SCT015 BKN025
BECMG 1916/1918 08008KT SCT010 BKN030
BECMG 2004/2006 27005KT CAVOK



MET'MAP, your aeronautical weather chart ! - Copyright ORBIFLY December 2007 - Disclaimer

ORBIFLY MET'MAP TEAM :

Programming & Development : Alexandra Zaïnal
Concept & original design : Baudouin d'Aumeries
Assistance for programming : Marc-Olivier Méhu
Technical & hardware support : Manuel Goepfert

Contact : metmap@orbifly.com




SOURCES & CREDITS :

   NOAA